www.cux-wetter.de
Wetterdaten: Freitag, 21.01.2011
Datum Zeit Temp. A. Feuchte A. Luftdruck Regen Wind Richtung Richtung Sonnenschein Solar Taupunkt Windchill Windben
21.01.2011 00:01 -0,2 C 90 % 1032,5 hPa 0,0 l/m 4,1 km/h (1 Bft) N 355 0 min 0 W/m -1,6 C -0,2 C 4,1 km/h (1 Bft)
21.01.2011 00:06 -0,2 C 90 % 1032,5 hPa 0,0 l/m 2,4 km/h (1 Bft) N 355 0 min 0 W/m -1,6 C -0,2 C 2,4 km/h (1 Bft)
21.01.2011 00:11 -0,2 C 90 % 1032,5 hPa 0,0 l/m 2,4 km/h (1 Bft) N 355 0 min 0 W/m -1,6 C -0,2 C 2,4 km/h (1 Bft)
21.01.2011 00:16 -0,2 C 90 % 1032,5 hPa 0,0 l/m 4,4 km/h (1 Bft) N 355 0 min 0 W/m -1,6 C -0,2 C 4,4 km/h (1 Bft)
21.01.2011 00:21 -0,2 C 90 % 1032,5 hPa 0,0 l/m 4,9 km/h (1 Bft) N 355 0 min 0 W/m -1,6 C -0,2 C 4,9 km/h (1 Bft)
21.01.2011 00:26 0,0 C 90 % 1032,5 hPa 0,0 l/m 6,0 km/h (2 Bft) N 355 0 min 0 W/m -1,4 C 0,0 C 6,0 km/h (2 Bft)
21.01.2011 00:31 0,0 C 90 % 1032,5 hPa 0,0 l/m 6,3 km/h (2 Bft) N 355 0 min 0 W/m -1,4 C 0,0 C 6,3 km/h (2 Bft)
21.01.2011 00:36 0,0 C 90 % 1032,5 hPa 0,0 l/m 7,2 km/h (2 Bft) N 355 0 min 0 W/m -1,4 C -0,8 C 7,2 km/h (2 Bft)
21.01.2011 00:41 0,0 C 90 % 1032,5 hPa 0,0 l/m 5,8 km/h (2 Bft) N 355 0 min 0 W/m -1,4 C 0,0 C 5,8 km/h (2 Bft)
21.01.2011 00:46 -0,2 C 90 % 1032,5 hPa 0,0 l/m 5,8 km/h (2 Bft) N 355 0 min 0 W/m -1,6 C -0,2 C 5,8 km/h (2 Bft)
21.01.2011 00:51 0,0 C 90 % 1032,5 hPa 0,0 l/m 5,8 km/h (2 Bft) N 355 0 min 0 W/m -1,4 C 0,0 C 5,8 km/h (2 Bft)
21.01.2011 00:56 0,0 C 90 % 1032,5 hPa 0,0 l/m 5,8 km/h (2 Bft) N 355 0 min 0 W/m -1,4 C 0,0 C 5,8 km/h (2 Bft)
21.01.2011 01:01 0,0 C 90 % 1032,5 hPa 0,0 l/m 5,8 km/h (2 Bft) N 355 0 min 0 W/m -1,4 C 0,0 C 5,8 km/h (2 Bft)
21.01.2011 01:07 0,0 C 91 % 1032,5 hPa 0,0 l/m 5,8 km/h (2 Bft) N 355 0 min 0 W/m -1,3 C 0,0 C 5,8 km/h (2 Bft)
21.01.2011 01:11 0,1 C 91 % 1032,5 hPa 0,0 l/m 5,8 km/h (2 Bft) N 355 0 min 0 W/m -1,2 C 0,1 C 5,8 km/h (2 Bft)
21.01.2011 01:16 0,1 C 91 % 1032,5 hPa 0,0 l/m 5,8 km/h (2 Bft) N 355 0 min 0 W/m -1,2 C 0,1 C 5,8 km/h (2 Bft)
21.01.2011 01:21 0,1 C 91 % 1032,5 hPa 0,0 l/m 5,8 km/h (2 Bft) N 355 0 min 0 W/m -1,2 C 0,1 C 5,8 km/h (2 Bft)
21.01.2011 01:26 0,1 C 91 % 1032,5 hPa 0,0 l/m 5,8 km/h (2 Bft) N 355 0 min 0 W/m -1,2 C 0,1 C 5,8 km/h (2 Bft)
21.01.2011 01:31 0,2 C 91 % 1032,5 hPa 0,0 l/m 9,6 km/h (2 Bft) N 355 0 min 0 W/m -1,1 C -2,9 C 9,6 km/h (2 Bft)
21.01.2011 01:36 0,2 C 91 % 1032,5 hPa 0,0 l/m 9,6 km/h (2 Bft) N 355 0 min 0 W/m -1,1 C -2,9 C 9,6 km/h (2 Bft)
21.01.2011 01:41 0,3 C 92 % 1032,5 hPa 0,0 l/m 9,6 km/h (2 Bft) N 355 0 min 0 W/m -0,8 C -2,8 C 9,6 km/h (2 Bft)
21.01.2011 01:46 0,3 C 92 % 1032,5 hPa 0,0 l/m 5,2 km/h (1 Bft) N 355 0 min 0 W/m -0,8 C 0,3 C 5,2 km/h (1 Bft)
21.01.2011 01:51 0,3 C 92 % 1032,5 hPa 0,0 l/m 6,2 km/h (2 Bft) N 355 0 min 0 W/m -0,8 C 0,3 C 6,2 km/h (2 Bft)
21.01.2011 01:56 0,3 C 92 % 1032,5 hPa 0,0 l/m 8,1 km/h (2 Bft) N 355 0 min 0 W/m -0,8 C -1,4 C 8,1 km/h (2 Bft)
21.01.2011 02:01 0,3 C 92 % 1032,5 hPa 0,0 l/m 8,1 km/h (2 Bft) N 355 0 min 0 W/m -0,8 C -1,4 C 8,1 km/h (2 Bft)
21.01.2011 02:06 0,4 C 92 % 1031,5 hPa 0,0 l/m 8,1 km/h (2 Bft) N 355 0 min 0 W/m -0,7 C -1,3 C 8,1 km/h (2 Bft)
21.01.2011 02:11 0,4 C 92 % 1032,5 hPa 0,0 l/m 8,1 km/h (2 Bft) N 355 0 min 0 W/m -0,7 C -1,3 C 8,1 km/h (2 Bft)
21.01.2011 02:16 0,5 C 92 % 1032,5 hPa 0,0 l/m 8,1 km/h (2 Bft) N 355 0 min 0 W/m -0,6 C -1,2 C 8,1 km/h (2 Bft)
21.01.2011 02:22 0,5 C 92 % 1032,5 hPa 0,0 l/m 8,1 km/h (2 Bft) N 355 0 min 0 W/m -0,6 C -1,2 C 8,1 km/h (2 Bft)
21.01.2011 02:26 0,6 C 92 % 1032,5 hPa 0,0 l/m 8,1 km/h (2 Bft) N 355 0 min 0 W/m -0,5 C -1,1 C 8,1 km/h (2 Bft)
21.01.2011 02:31 0,7 C 92 % 1032,5 hPa 0,0 l/m 8,1 km/h (2 Bft) N 355 0 min 0 W/m -0,4 C -1,0 C 8,1 km/h (2 Bft)
21.01.2011 02:36 0,7 C 92 % 1032,5 hPa 0,0 l/m 8,1 km/h (2 Bft) N 355 0 min 0 W/m -0,4 C -1,0 C 8,1 km/h (2 Bft)
21.01.2011 02:41 0,8 C 92 % 1032,5 hPa 0,0 l/m 8,1 km/h (2 Bft) N 355 0 min 0 W/m -0,3 C -0,9 C 8,1 km/h (2 Bft)
21.01.2011 02:46 0,9 C 92 % 1032,5 hPa 0,0 l/m 5,2 km/h (1 Bft) N 355 0 min 0 W/m -0,2 C 0,9 C 5,2 km/h (1 Bft)
21.01.2011 02:51 0,9 C 92 % 1032,5 hPa 0,0 l/m 5,2 km/h (1 Bft) N 355 0 min 0 W/m -0,2 C 0,9 C 5,2 km/h (1 Bft)
21.01.2011 02:56 0,9 C 92 % 1032,5 hPa 0,0 l/m 14,6 km/h (3 Bft) N 355 0 min 0 W/m -0,2 C -5,7 C 14,6 km/h (3 Bft)
21.01.2011 03:01 0,9 C 93 % 1032,5 hPa 0,0 l/m 9,5 km/h (2 Bft) N 355 0 min 0 W/m -0,1 C -2,0 C 9,5 km/h (2 Bft)
21.01.2011 03:06 0,8 C 93 % 1032,5 hPa 0,0 l/m 11,9 km/h (2 Bft) N 355 0 min 0 W/m -0,2 C -4,0 C 11,9 km/h (2 Bft)
21.01.2011 03:11 0,8 C 93 % 1032,5 hPa 0,0 l/m 10,8 km/h (2 Bft) N 355 0 min 0 W/m -0,2 C -3,2 C 10,8 km/h (2 Bft)
21.01.2011 03:16 0,8 C 93 % 1032,5 hPa 0,0 l/m 10,8 km/h (2 Bft) N 355 0 min 0 W/m -0,2 C -3,2 C 10,8 km/h (2 Bft)
21.01.2011 03:21 0,8 C 93 % 1031,5 hPa 0,0 l/m 10,1 km/h (2 Bft) N 355 0 min 0 W/m -0,2 C -2,6 C 10,1 km/h (2 Bft)
21.01.2011 03:26 0,9 C 93 % 1032,5 hPa 0,0 l/m 10,1 km/h (2 Bft) N 355 0 min 0 W/m -0,1 C -2,5 C 10,1 km/h (2 Bft)
21.01.2011 03:31 0,9 C 93 % 1032,5 hPa 0,0 l/m 10,1 km/h (2 Bft) N 355 0 min 0 W/m -0,1 C -2,5 C 10,1 km/h (2 Bft)
21.01.2011 03:36 0,9 C 93 % 1032,5 hPa 0,0 l/m 10,1 km/h (2 Bft) N 355 0 min 0 W/m -0,1 C -2,5 C 10,1 km/h (2 Bft)
21.01.2011 03:41 0,9 C 93 % 1032,5 hPa 0,0 l/m 9,4 km/h (2 Bft) N 350 0 min 0 W/m -0,1 C -2,0 C 9,4 km/h (2 Bft)
21.01.2011 03:46 1,0 C 93 % 1032,5 hPa 0,0 l/m 10,6 km/h (2 Bft) N 350 0 min 0 W/m -0,0 C -2,8 C 10,6 km/h (2 Bft)
21.01.2011 03:51 0,9 C 93 % 1032,5 hPa 0,0 l/m 10,6 km/h (2 Bft) N 350 0 min 0 W/m -0,1 C -2,9 C 10,6 km/h (2 Bft)
21.01.2011 03:56 0,9 C 93 % 1032,5 hPa 0,0 l/m 11,6 km/h (2 Bft) N 350 0 min 0 W/m -0,1 C -3,7 C 11,6 km/h (2 Bft)
21.01.2011 04:01 0,9 C 93 % 1032,5 hPa 0,0 l/m 6,8 km/h (2 Bft) N 350 0 min 0 W/m -0,1 C 0,5 C 6,8 km/h (2 Bft)
21.01.2011 04:06 0,9 C 93 % 1031,5 hPa 0,0 l/m 8,7 km/h (2 Bft) N 350 0 min 0 W/m -0,1 C -1,3 C 8,7 km/h (2 Bft)
21.01.2011 04:12 0,9 C 93 % 1031,5 hPa 0,0 l/m 8,7 km/h (2 Bft) N 350 0 min 0 W/m -0,1 C -1,3 C 8,7 km/h (2 Bft)
21.01.2011 04:16 0,9 C 93 % 1031,5 hPa 0,0 l/m 8,7 km/h (2 Bft) N 350 0 min 0 W/m -0,1 C -1,3 C 8,7 km/h (2 Bft)
21.01.2011 04:21 0,9 C 93 % 1031,5 hPa 0,0 l/m 8,7 km/h (2 Bft) N 350 0 min 0 W/m -0,1 C -1,3 C 8,7 km/h (2 Bft)
21.01.2011 04:26 1,0 C 93 % 1031,5 hPa 0,0 l/m 9,4 km/h (2 Bft) N 350 0 min 0 W/m -0,0 C -1,9 C 9,4 km/h (2 Bft)
21.01.2011 04:31 0,9 C 94 % 1031,5 hPa 0,0 l/m 9,4 km/h (2 Bft) N 350 0 min 0 W/m 0,0 C -2,0 C 9,4 km/h (2 Bft)
21.01.2011 04:36 0,9 C 94 % 1031,5 hPa 0,0 l/m 12,6 km/h (3 Bft) N 350 0 min 0 W/m 0,0 C -4,4 C 12,6 km/h (3 Bft)
21.01.2011 04:41 0,9 C 94 % 1031,5 hPa 0,0 l/m 10,8 km/h (2 Bft) N 350 0 min 0 W/m 0,0 C -3,1 C 10,8 km/h (2 Bft)
21.01.2011 04:46 0,8 C 94 % 1031,5 hPa 0,0 l/m 10,8 km/h (2 Bft) N 350 0 min 0 W/m -0,1 C -3,2 C 10,8 km/h (2 Bft)
21.01.2011 04:51 0,8 C 94 % 1031,5 hPa 0,0 l/m 8,9 km/h (2 Bft) N-NW 345 0 min 0 W/m -0,1 C -1,6 C 8,9 km/h (2 Bft)
21.01.2011 04:56 0,8 C 94 % 1031,5 hPa 0,0 l/m 11,6 km/h (2 Bft) N 350 0 min 0 W/m -0,1 C -3,8 C 11,6 km/h (2 Bft)
21.01.2011 05:01 0,8 C 94 % 1031,5 hPa 0,0 l/m 11,3 km/h (2 Bft) N-NW 345 0 min 0 W/m -0,1 C -3,6 C 11,3 km/h (2 Bft)
21.01.2011 05:06 0,9 C 94 % 1031,5 hPa 0,0 l/m 10,1 km/h (2 Bft) N 350 0 min 0 W/m 0,0 C -2,5 C 10,1 km/h (2 Bft)
21.01.2011 05:11 0,9 C 94 % 1031,5 hPa 0,0 l/m 9,2 km/h (2 Bft) N-NW 345 0 min 0 W/m 0,0 C -1,8 C 9,2 km/h (2 Bft)
21.01.2011 05:16 0,9 C 94 % 1031,5 hPa 0,0 l/m 11,5 km/h (2 Bft) N-NW 345 0 min 0 W/m 0,0 C -3,6 C 11,5 km/h (2 Bft)
21.01.2011 05:21 0,8 C 94 % 1031,5 hPa 0,0 l/m 11,2 km/h (2 Bft) N-NW 345 0 min 0 W/m -0,1 C -3,5 C 11,2 km/h (2 Bft)
21.01.2011 05:26 0,9 C 94 % 1031,5 hPa 0,0 l/m 8,0 km/h (2 Bft) N-NW 345 0 min 0 W/m 0,0 C -0,7 C 8,0 km/h (2 Bft)
21.01.2011 05:31 0,9 C 94 % 1031,5 hPa 0,0 l/m 9,6 km/h (2 Bft) N-NW 345 0 min 0 W/m 0,0 C -2,1 C 9,6 km/h (2 Bft)
21.01.2011 05:36 0,9 C 94 % 1031,5 hPa 0,0 l/m 9,1 km/h (2 Bft) N-NW 345 0 min 0 W/m 0,0 C -1,7 C 9,1 km/h (2 Bft)
21.01.2011 05:41 1,0 C 94 % 1031,5 hPa 0,0 l/m 9,6 km/h (2 Bft) N-NW 345 0 min 0 W/m 0,1 C -2,0 C 9,6 km/h (2 Bft)
21.01.2011 05:46 1,0 C 94 % 1031,5 hPa 0,0 l/m 10,1 km/h (2 Bft) N 350 0 min 0 W/m 0,1 C -2,4 C 10,1 km/h (2 Bft)
21.01.2011 05:51 1,1 C 94 % 1031,5 hPa 0,0 l/m 8,1 km/h (2 Bft) N-NW 345 0 min 0 W/m 0,2 C -0,6 C 8,1 km/h (2 Bft)
21.01.2011 05:56 1,1 C 94 % 1031,5 hPa 0,0 l/m 8,9 km/h (2 Bft) N-NW 345 0 min 0 W/m 0,2 C -1,3 C 8,9 km/h (2 Bft)
21.01.2011 06:01 1,1 C 94 % 1031,5 hPa 0,0 l/m 5,7 km/h (2 Bft) N-NW 345 0 min 0 W/m 0,2 C 1,1 C 5,7 km/h (2 Bft)
21.01.2011 06:06 1,1 C 94 % 1031,5 hPa 0,0 l/m 11,1 km/h (2 Bft) N-NW 340 0 min 0 W/m 0,2 C -3,1 C 11,1 km/h (2 Bft)
21.01.2011 06:11 1,1 C 94 % 1031,5 hPa 0,0 l/m 11,5 km/h (2 Bft) N-NW 330 0 min 0 W/m 0,2 C -3,4 C 11,5 km/h (2 Bft)
21.01.2011 06:16 1,1 C 94 % 1031,5 hPa 0,0 l/m 12,3 km/h (2 Bft) W-NW 290 0 min 0 W/m 0,2 C -3,9 C 12,3 km/h (2 Bft)
21.01.2011 06:21 1,1 C 94 % 1031,5 hPa 0,0 l/m 8,1 km/h (2 Bft) W 270 0 min 0 W/m 0,2 C -0,6 C 8,1 km/h (2 Bft)
21.01.2011 06:26 1,1 C 94 % 1031,5 hPa 0,0 l/m 7,5 km/h (2 Bft) W 265 0 min 0 W/m 0,2 C -0,0 C 7,5 km/h (2 Bft)
21.01.2011 06:31 1,1 C 94 % 1031,5 hPa 0,0 l/m 7,5 km/h (2 Bft) W 265 0 min 0 W/m 0,2 C -0,0 C 7,5 km/h (2 Bft)
21.01.2011 06:37 1,1 C 94 % 1031,5 hPa 0,0 l/m 11,5 km/h (2 Bft) W-SW 250 0 min 0 W/m 0,2 C -3,4 C 11,5 km/h (2 Bft)
21.01.2011 06:41 1,1 C 94 % 1031,5 hPa 0,0 l/m 11,3 km/h (2 Bft) W-SW 250 0 min 0 W/m 0,2 C -3,2 C 11,3 km/h (2 Bft)
21.01.2011 06:46 1,1 C 94 % 1031,5 hPa 0,0 l/m 11,0 km/h (2 Bft) W-SW 245 0 min 0 W/m 0,2 C -3,0 C 11,0 km/h (2 Bft)
21.01.2011 06:51 1,1 C 94 % 1031,5 hPa 0,0 l/m 11,8 km/h (2 Bft) W-SW 250 0 min 0 W/m 0,2 C -3,6 C 11,8 km/h (2 Bft)
21.01.2011 06:56 1,1 C 94 % 1031,5 hPa 0,0 l/m 9,3 km/h (2 Bft) W-SW 250 0 min 0 W/m 0,2 C -1,7 C 9,3 km/h (2 Bft)
21.01.2011 07:01 1,1 C 94 % 1031,5 hPa 0,0 l/m 13,0 km/h (3 Bft) W-SW 250 0 min 0 W/m 0,2 C -4,4 C 13,0 km/h (3 Bft)
21.01.2011 07:06 1,1 C 94 % 1031,5 hPa 0,0 l/m 11,0 km/h (2 Bft) W 260 0 min 0 W/m 0,2 C -3,0 C 11,0 km/h (2 Bft)
21.01.2011 07:11 1,1 C 94 % 1031,5 hPa 0,0 l/m 9,3 km/h (2 Bft) W-SW 250 0 min 0 W/m 0,2 C -1,7 C 9,3 km/h (2 Bft)
21.01.2011 07:16 1,1 C 94 % 1031,5 hPa 0,0 l/m 12,0 km/h (2 Bft) W 265 0 min 0 W/m 0,2 C -3,7 C 12,0 km/h (2 Bft)
21.01.2011 07:21 1,0 C 94 % 1031,5 hPa 0,0 l/m 13,3 km/h (3 Bft) W 265 0 min 0 W/m 0,1 C -4,7 C 13,3 km/h (3 Bft)
21.01.2011 07:26 1,0 C 94 % 1031,5 hPa 0,0 l/m 13,7 km/h (3 Bft) W 260 0 min 0 W/m 0,1 C -5,0 C 13,7 km/h (3 Bft)
21.01.2011 07:31 0,9 C 94 % 1031,5 hPa 0,0 l/m 12,6 km/h (3 Bft) W 265 0 min 0 W/m 0,0 C -4,4 C 12,6 km/h (3 Bft)
21.01.2011 07:36 0,9 C 94 % 1031,5 hPa 0,0 l/m 10,6 km/h (2 Bft) W-SW 250 0 min 0 W/m 0,0 C -2,9 C 10,6 km/h (2 Bft)
21.01.2011 07:41 1,1 C 94 % 1031,5 hPa 0,0 l/m 11,0 km/h (2 Bft) W-SW 250 0 min 0 W/m 0,2 C -3,0 C 11,0 km/h (2 Bft)
21.01.2011 07:46 1,1 C 94 % 1031,5 hPa 0,0 l/m 13,3 km/h (3 Bft) W-SW 250 0 min 0 W/m 0,2 C -4,6 C 13,3 km/h (3 Bft)
21.01.2011 07:51 1,1 C 94 % 1031,5 hPa 0,0 l/m 10,8 km/h (2 Bft) W 260 0 min 0 W/m 0,2 C -2,9 C 10,8 km/h (2 Bft)
21.01.2011 07:56 1,1 C 94 % 1031,5 hPa 0,0 l/m 10,5 km/h (2 Bft) W-SW 255 0 min 0 W/m 0,2 C -2,6 C 10,5 km/h (2 Bft)
21.01.2011 08:01 1,1 C 94 % 1031,5 hPa 0,0 l/m 11,9 km/h (2 Bft) W 265 0 min 0 W/m 0,2 C -3,7 C 11,9 km/h (2 Bft)
21.01.2011 08:06 1,1 C 94 % 1031,5 hPa 0,0 l/m 9,8 km/h (2 Bft) W-SW 255 0 min 0 W/m 0,2 C -2,1 C 9,8 km/h (2 Bft)
21.01.2011 08:12 1,1 C 94 % 1031,5 hPa 0,0 l/m 11,6 km/h (2 Bft) W 260 0 min 0 W/m 0,2 C -3,5 C 11,6 km/h (2 Bft)
21.01.2011 08:16 1,2 C 94 % 1031,5 hPa 0,0 l/m 10,9 km/h (2 Bft) W-SW 250 0 min 0 W/m 0,3 C -2,8 C 10,9 km/h (2 Bft)
21.01.2011 08:21 1,2 C 94 % 1031,5 hPa 0,0 l/m 11,8 km/h (2 Bft) W-SW 250 0 min 0 W/m 0,3 C -3,5 C 11,8 km/h (2 Bft)
21.01.2011 08:26 1,2 C 94 % 1031,5 hPa 0,0 l/m 14,1 km/h (3 Bft) W-SW 250 0 min 0 W/m 0,3 C -5,0 C 14,1 km/h (3 Bft)
21.01.2011 08:31 1,2 C 94 % 1031,5 hPa 0,0 l/m 12,2 km/h (2 Bft) W-SW 255 0 min 0 W/m 0,3 C -3,8 C 12,2 km/h (2 Bft)
21.01.2011 08:36 1,5 C 95 % 1031,5 hPa 0,0 l/m 13,6 km/h (3 Bft) W-SW 250 0 min 0 W/m 0,8 C -4,3 C 13,6 km/h (3 Bft)
21.01.2011 08:41 1,5 C 95 % 1031,5 hPa 0,0 l/m 11,5 km/h (2 Bft) W-SW 250 0 min 0 W/m 0,8 C -2,9 C 11,5 km/h (2 Bft)
21.01.2011 08:46 1,4 C 94 % 1031,5 hPa 0,0 l/m 12,1 km/h (2 Bft) W-SW 250 0 min 0 W/m 0,5 C -3,5 C 12,1 km/h (2 Bft)
21.01.2011 08:51 1,3 C 94 % 1031,5 hPa 0,0 l/m 11,3 km/h (2 Bft) W 260 0 min 0 W/m 0,4 C -3,0 C 11,3 km/h (2 Bft)
21.01.2011 08:56 1,3 C 94 % 1031,5 hPa 0,0 l/m 7,9 km/h (2 Bft) W-SW 245 0 min 0 W/m 0,4 C -0,2 C 7,9 km/h (2 Bft)
21.01.2011 09:01 1,3 C 94 % 1031,5 hPa 0,0 l/m 9,3 km/h (2 Bft) W 260 0 min 0 W/m 0,4 C -1,4 C 9,3 km/h (2 Bft)
21.01.2011 09:06 1,3 C 94 % 1031,5 hPa 0,0 l/m 5,5 km/h (2 Bft) W-SW 250 0 min 0 W/m 0,4 C 1,3 C 5,5 km/h (2 Bft)
21.01.2011 09:11 1,4 C 94 % 1031,5 hPa 0,0 l/m 5,5 km/h (2 Bft) W-SW 250 0 min 0 W/m 0,5 C 1,4 C 5,5 km/h (2 Bft)
21.01.2011 09:17 1,4 C 94 % 1031,5 hPa 0,0 l/m 7,9 km/h (2 Bft) W-SW 250 0 min 0 W/m 0,5 C -0,1 C 7,9 km/h (2 Bft)
21.01.2011 09:21 1,5 C 94 % 1031,5 hPa 0,0 l/m 12,3 km/h (2 Bft) W-SW 250 0 min 0 W/m 0,6 C -3,5 C 12,3 km/h (2 Bft)
21.01.2011 09:26 1,5 C 94 % 1031,5 hPa 0,0 l/m 13,1 km/h (3 Bft) W-SW 255 0 min 0 W/m 0,6 C -4,0 C 13,1 km/h (3 Bft)
21.01.2011 09:31 1,5 C 94 % 1031,5 hPa 0,0 l/m 13,5 km/h (3 Bft) W-SW 250 0 min 0 W/m 0,6 C -4,3 C 13,5 km/h (3 Bft)
21.01.2011 09:36 1,6 C 94 % 1031,5 hPa 0,0 l/m 10,8 km/h (2 Bft) W-SW 255 0 min 0 W/m 0,7 C -2,3 C 10,8 km/h (2 Bft)
21.01.2011 09:41 1,7 C 94 % 1031,5 hPa 0,0 l/m 9,6 km/h (2 Bft) W-SW 250 0 min 0 W/m 0,8 C -1,3 C 9,6 km/h (2 Bft)
21.01.2011 09:46 1,7 C 94 % 1031,5 hPa 0,0 l/m 10,5 km/h (2 Bft) W 260 0 min 0 W/m 0,8 C -2,0 C 10,5 km/h (2 Bft)
21.01.2011 09:51 1,7 C 94 % 1031,5 hPa 0,0 l/m 11,0 km/h (2 Bft) SW 235 0 min 0 W/m 0,8 C -2,3 C 11,0 km/h (2 Bft)
21.01.2011 09:57 1,8 C 94 % 1031,5 hPa 0,0 l/m 10,3 km/h (2 Bft) W-SW 250 0 min 0 W/m 0,9 C -1,7 C 10,3 km/h (2 Bft)
21.01.2011 10:01 1,9 C 94 % 1031,5 hPa 0,0 l/m 10,7 km/h (2 Bft) W-SW 245 0 min 0 W/m 1,0 C -1,9 C 10,7 km/h (2 Bft)
21.01.2011 10:06 1,9 C 94 % 1031,5 hPa 0,0 l/m 10,8 km/h (2 Bft) W-SW 250 0 min 0 W/m 1,0 C -2,0 C 10,8 km/h (2 Bft)
21.01.2011 10:11 1,9 C 94 % 1031,5 hPa 0,0 l/m 11,3 km/h (2 Bft) W-SW 250 0 min 0 W/m 1,0 C -2,3 C 11,3 km/h (2 Bft)
21.01.2011 10:16 2,0 C 94 % 1031,5 hPa 0,0 l/m 9,3 km/h (2 Bft) W-SW 240 0 min 0 W/m 1,1 C -0,7 C 9,3 km/h (2 Bft)
21.01.2011 10:22 2,0 C 94 % 1031,5 hPa 0,0 l/m 7,6 km/h (2 Bft) W-SW 250 0 min 0 W/m 1,1 C 0,8 C 7,6 km/h (2 Bft)
21.01.2011 10:26 2,0 C 94 % 1031,5 hPa 0,0 l/m 9,1 km/h (2 Bft) W-SW 250 0 min 0 W/m 1,1 C -0,5 C 9,1 km/h (2 Bft)
21.01.2011 10:31 2,2 C 94 % 1031,5 hPa 0,3 l/m 6,2 km/h (2 Bft) W-SW 250 0 min 0 W/m 1,3 C 2,2 C 6,2 km/h (2 Bft)
21.01.2011 10:36 2,2 C 94 % 1031,5 hPa 0,3 l/m 7,6 km/h (2 Bft) W-SW 250 0 min 0 W/m 1,3 C 1,0 C 7,6 km/h (2 Bft)
21.01.2011 10:41 2,3 C 94 % 1031,5 hPa 0,0 l/m 7,5 km/h (2 Bft) W-SW 250 0 min 0 W/m 1,4 C 1,2 C 7,5 km/h (2 Bft)
21.01.2011 10:46 2,3 C 94 % 1031,5 hPa 0,0 l/m 6,1 km/h (2 Bft) W-SW 250 0 min 0 W/m 1,4 C 2,3 C 6,1 km/h (2 Bft)
21.01.2011 10:51 2,5 C 94 % 1031,5 hPa 0,0 l/m 5,9 km/h (2 Bft) W-SW 250 0 min 0 W/m 1,6 C 2,5 C 5,9 km/h (2 Bft)
21.01.2011 10:56 2,5 C 94 % 1031,5 hPa 0,0 l/m 5,4 km/h (2 Bft) W-SW 250 0 min 0 W/m 1,6 C 2,5 C 5,4 km/h (2 Bft)
21.01.2011 11:02 2,7 C 94 % 1031,5 hPa 0,0 l/m 5,2 km/h (1 Bft) W-SW 245 0 min 0 W/m 1,8 C 2,7 C 5,2 km/h (1 Bft)
21.01.2011 11:06 3,0 C 95 % 1031,5 hPa 0,0 l/m 6,8 km/h (2 Bft) W-SW 250 0 min 0 W/m 2,3 C 2,6 C 6,8 km/h (2 Bft)
21.01.2011 11:11 3,6 C 96 % 1031,5 hPa 0,0 l/m 6,3 km/h (2 Bft) NW 315 0 min 0 W/m 3,0 C 3,6 C 6,3 km/h (2 Bft)
21.01.2011 11:16 3,9 C 96 % 1031,5 hPa 0,0 l/m 7,4 km/h (2 Bft) NW 325 0 min 0 W/m 3,3 C 3,0 C 7,4 km/h (2 Bft)
21.01.2011 11:21 3,7 C 95 % 1031,5 hPa 0,0 l/m 10,0 km/h (2 Bft) N 350 0 min 0 W/m 3,0 C 0,6 C 10,0 km/h (2 Bft)
21.01.2011 11:26 3,6 C 95 % 1031,5 hPa 0,0 l/m 16,3 km/h (3 Bft) N 355 0 min 0 W/m 2,9 C -3,3 C 16,3 km/h (3 Bft)
21.01.2011 11:32 3,6 C 94 % 1031,5 hPa 0,0 l/m 11,1 km/h (2 Bft) N 355 0 min 0 W/m 2,7 C -0,3 C 11,1 km/h (2 Bft)
21.01.2011 11:36 3,5 C 94 % 1031,5 hPa 0,0 l/m 10,3 km/h (2 Bft) N 355 0 min 0 W/m 2,6 C 0,2 C 10,3 km/h (2 Bft)
21.01.2011 11:41 3,5 C 94 % 1031,5 hPa 0,0 l/m 10,3 km/h (2 Bft) N 5 0 min 0 W/m 2,6 C 0,2 C 10,3 km/h (2 Bft)
21.01.2011 11:46 3,5 C 94 % 1031,5 hPa 0,0 l/m 9,2 km/h (2 Bft) N 5 0 min 0 W/m 2,6 C 1,0 C 9,2 km/h (2 Bft)
21.01.2011 11:51 3,4 C 94 % 1031,5 hPa 0,0 l/m 7,4 km/h (2 Bft) N-NO 15 0 min 0 W/m 2,5 C 2,5 C 7,4 km/h (2 Bft)
21.01.2011 11:56 3,5 C 94 % 1031,5 hPa 0,0 l/m 9,5 km/h (2 Bft) N-NO 15 0 min 0 W/m 2,6 C 0,8 C 9,5 km/h (2 Bft)
21.01.2011 12:01 3,5 C 94 % 1031,5 hPa 0,0 l/m 9,8 km/h (2 Bft) N-NO 20 0 min 0 W/m 2,6 C 0,6 C 9,8 km/h (2 Bft)
21.01.2011 12:06 3,4 C 94 % 1031,5 hPa 0,0 l/m 9,7 km/h (2 Bft) N 10 0 min 0 W/m 2,5 C 0,5 C 9,7 km/h (2 Bft)
21.01.2011 12:11 3,5 C 94 % 1031,5 hPa 0,0 l/m 8,4 km/h (2 Bft) N 360 0 min 0 W/m 2,6 C 1,7 C 8,4 km/h (2 Bft)
21.01.2011 12:16 3,5 C 94 % 1031,5 hPa 0,0 l/m 8,5 km/h (2 Bft) N 5 0 min 0 W/m 2,6 C 1,6 C 8,5 km/h (2 Bft)
21.01.2011 12:21 3,4 C 94 % 1031,5 hPa 0,0 l/m 11,5 km/h (2 Bft) N-NO 15 0 min 0 W/m 2,5 C -0,8 C 11,5 km/h (2 Bft)
21.01.2011 12:26 3,4 C 94 % 1031,5 hPa 0,0 l/m 10,3 km/h (2 Bft) N 5 0 min 0 W/m 2,5 C 0,1 C 10,3 km/h (2 Bft)
21.01.2011 12:32 3,3 C 94 % 1031,5 hPa 0,0 l/m 8,3 km/h (2 Bft) N-NO 30 0 min 0 W/m 2,4 C 1,6 C 8,3 km/h (2 Bft)
21.01.2011 12:36 3,3 C 94 % 1031,5 hPa 0,0 l/m 6,7 km/h (2 Bft) N 5 0 min 0 W/m 2,4 C 3,0 C 6,7 km/h (2 Bft)
21.01.2011 12:41 3,3 C 94 % 1031,5 hPa 0,0 l/m 6,8 km/h (2 Bft) N-NO 30 0 min 0 W/m 2,4 C 2,9 C 6,8 km/h (2 Bft)
21.01.2011 12:46 3,3 C 94 % 1031,5 hPa 0,0 l/m 7,1 km/h (2 Bft) N-NO 15 0 min 0 W/m 2,4 C 2,6 C 7,1 km/h (2 Bft)
21.01.2011 12:51 3,3 C 94 % 1031,5 hPa 0,0 l/m 7,9 km/h (2 Bft) N 10 0 min 0 W/m 2,4 C 1,9 C 7,9 km/h (2 Bft)
21.01.2011 12:56 3,3 C 94 % 1031,5 hPa 0,0 l/m 7,9 km/h (2 Bft) N-NO 20 0 min 0 W/m 2,4 C 1,9 C 7,9 km/h (2 Bft)
21.01.2011 13:01 3,2 C 94 % 1031,5 hPa 0,0 l/m 5,6 km/h (2 Bft) N-NO 15 0 min 0 W/m 2,3 C 3,2 C 5,6 km/h (2 Bft)
21.01.2011 13:06 3,3 C 94 % 1031,5 hPa 0,0 l/m 0,1 km/h (0 Bft) N 5 0 min 0 W/m 2,4 C 3,3 C 0,1 km/h (0 Bft)
21.01.2011 13:11 3,3 C 94 % 1031,5 hPa 0,0 l/m 0,4 km/h (0 Bft) N 5 0 min 0 W/m 2,4 C 3,3 C 0,4 km/h (0 Bft)
21.01.2011 13:16 3,4 C 94 % 1031,5 hPa 0,0 l/m 0,5 km/h (0 Bft) N 5 0 min 0 W/m 2,5 C 3,4 C 0,5 km/h (0 Bft)
21.01.2011 13:21 3,4 C 94 % 1031,5 hPa 0,0 l/m 0,1 km/h (0 Bft) N 5 0 min 0 W/m 2,5 C 3,4 C 0,1 km/h (0 Bft)
21.01.2011 13:26 3,5 C 94 % 1031,5 hPa 0,0 l/m 0,6 km/h (0 Bft) N 5 0 min 0 W/m 2,6 C 3,5 C 0,6 km/h (0 Bft)
21.01.2011 13:32 3,5 C 94 % 1031,5 hPa 0,0 l/m 1,1 km/h (1 Bft) N 5 0 min 0 W/m 2,6 C 3,5 C 1,1 km/h (1 Bft)
21.01.2011 13:36 3,5 C 94 % 1031,5 hPa 0,0 l/m 6,5 km/h (2 Bft) N 5 0 min 0 W/m 2,6 C 3,4 C 6,5 km/h (2 Bft)
21.01.2011 13:41 3,6 C 94 % 1031,5 hPa 0,0 l/m 6,5 km/h (2 Bft) N 5 0 min 0 W/m 2,7 C 3,5 C 6,5 km/h (2 Bft)
21.01.2011 13:46 3,6 C 93 % 1030,5 hPa 0,0 l/m 5,0 km/h (1 Bft) N 5 0 min 0 W/m 2,6 C 3,6 C 5,0 km/h (1 Bft)
21.01.2011 13:51 3,6 C 93 % 1030,5 hPa 0,0 l/m 5,0 km/h (1 Bft) N 5 0 min 0 W/m 2,6 C 3,6 C 5,0 km/h (1 Bft)
21.01.2011 13:56 3,6 C 93 % 1030,5 hPa 0,0 l/m 4,4 km/h (1 Bft) N 360 0 min 0 W/m 2,6 C 3,6 C 4,4 km/h (1 Bft)
21.01.2011 14:01 3,7 C 93 % 1030,5 hPa 0,0 l/m 3,7 km/h (1 Bft) N 360 0 min 0 W/m 2,7 C 3,7 C 3,7 km/h (1 Bft)
21.01.2011 14:06 3,7 C 93 % 1030,5 hPa 0,0 l/m 2,4 km/h (1 Bft) N 360 0 min 0 W/m 2,7 C 3,7 C 2,4 km/h (1 Bft)
21.01.2011 14:11 3,7 C 93 % 1030,5 hPa 0,0 l/m 6,5 km/h (2 Bft) N 355 0 min 0 W/m 2,7 C 3,6 C 6,5 km/h (2 Bft)
21.01.2011 14:16 3,7 C 93 % 1030,5 hPa 0,0 l/m 8,1 km/h (2 Bft) N-NW 340 0 min 0 W/m 2,7 C 2,2 C 8,1 km/h (2 Bft)
21.01.2011 14:21 3,9 C 92 % 1030,5 hPa 0,0 l/m 11,5 km/h (2 Bft) N 355 0 min 0 W/m 2,7 C -0,2 C 11,5 km/h (2 Bft)
21.01.2011 14:26 3,9 C 92 % 1030,5 hPa 0,0 l/m 12,5 km/h (2 Bft) N 350 0 min 0 W/m 2,7 C -0,8 C 12,5 km/h (2 Bft)
21.01.2011 14:31 3,9 C 92 % 1030,5 hPa 0,0 l/m 7,4 km/h (2 Bft) N 5 0 min 0 W/m 2,7 C 3,0 C 7,4 km/h (2 Bft)
21.01.2011 14:36 4,0 C 92 % 1030,5 hPa 0,0 l/m 8,8 km/h (2 Bft) N 360 0 min 0 W/m 2,8 C 1,9 C 8,8 km/h (2 Bft)
21.01.2011 14:41 4,0 C 91 % 1030,5 hPa 0,0 l/m 12,5 km/h (2 Bft) N-NO 15 0 min 0 W/m 2,7 C -0,7 C 12,5 km/h (2 Bft)
21.01.2011 14:46 3,9 C 91 % 1030,5 hPa 0,0 l/m 13,3 km/h (3 Bft) N 5 0 min 0 W/m 2,6 C -1,3 C 13,3 km/h (3 Bft)
21.01.2011 14:51 3,9 C 91 % 1030,5 hPa 0,0 l/m 13,4 km/h (3 Bft) N 5 0 min 0 W/m 2,6 C -1,4 C 13,4 km/h (3 Bft)
21.01.2011 14:56 3,9 C 91 % 1030,5 hPa 0,0 l/m 15,2 km/h (3 Bft) N 5 0 min 0 W/m 2,6 C -2,4 C 15,2 km/h (3 Bft)
21.01.2011 15:01 3,9 C 91 % 1030,5 hPa 0,0 l/m 11,3 km/h (2 Bft) N-NO 15 0 min 0 W/m 2,6 C -0,1 C 11,3 km/h (2 Bft)
21.01.2011 15:06 3,7 C 91 % 1030,5 hPa 0,0 l/m 10,4 km/h (2 Bft) N-NO 15 0 min 0 W/m 2,4 C 0,3 C 10,4 km/h (2 Bft)
21.01.2011 15:11 3,7 C 91 % 1030,5 hPa 0,0 l/m 11,1 km/h (2 Bft) N 10 0 min 0 W/m 2,4 C -0,1 C 11,1 km/h (2 Bft)
21.01.2011 15:16 3,6 C 90 % 1030,5 hPa 0,0 l/m 10,2 km/h (2 Bft) N-NO 20 0 min 0 W/m 2,1 C 0,4 C 10,2 km/h (2 Bft)
21.01.2011 15:21 3,5 C 90 % 1030,5 hPa 0,0 l/m 14,0 km/h (3 Bft) N-NO 30 0 min 0 W/m 2,0 C -2,2 C 14,0 km/h (3 Bft)
21.01.2011 15:26 3,5 C 90 % 1030,5 hPa 0,0 l/m 9,2 km/h (2 Bft) N-NO 20 0 min 0 W/m 2,0 C 1,0 C 9,2 km/h (2 Bft)
21.01.2011 15:31 3,5 C 90 % 1030,5 hPa 0,0 l/m 8,1 km/h (2 Bft) N 10 0 min 0 W/m 2,0 C 1,9 C 8,1 km/h (2 Bft)
21.01.2011 15:36 3,5 C 90 % 1030,5 hPa 0,0 l/m 13,8 km/h (3 Bft) N 5 0 min 0 W/m 2,0 C -2,1 C 13,8 km/h (3 Bft)
21.01.2011 15:41 3,4 C 90 % 1030,5 hPa 0,0 l/m 11,7 km/h (2 Bft) N 5 0 min 0 W/m 1,9 C -0,9 C 11,7 km/h (2 Bft)
21.01.2011 15:46 3,2 C 90 % 1030,5 hPa 0,0 l/m 18,0 km/h (3 Bft) N-NO 25 0 min 0 W/m 1,7 C -4,6 C 18,0 km/h (3 Bft)
21.01.2011 15:51 3,1 C 90 % 1030,5 hPa 0,0 l/m 9,0 km/h (2 Bft) N-NO 25 0 min 0 W/m 1,6 C 0,8 C 9,0 km/h (2 Bft)
21.01.2011 15:56 2,9 C 90 % 1030,5 hPa 0,0 l/m 11,2 km/h (2 Bft) N-NO 15 0 min 0 W/m 1,4 C -1,1 C 11,2 km/h (2 Bft)
21.01.2011 16:02 2,8 C 90 % 1030,5 hPa 0,0 l/m 12,5 km/h (2 Bft) N-NO 20 0 min 0 W/m 1,3 C -2,1 C 12,5 km/h (2 Bft)
21.01.2011 16:06 2,7 C 90 % 1030,5 hPa 0,0 l/m 5,9 km/h (2 Bft) NO 45 0 min 0 W/m 1,2 C 2,7 C 5,9 km/h (2 Bft)
21.01.2011 16:11 2,6 C 90 % 1030,5 hPa 0,0 l/m 8,6 km/h (2 Bft) NO 40 0 min 0 W/m 1,1 C 0,6 C 8,6 km/h (2 Bft)
21.01.2011 16:16 2,4 C 90 % 1030,5 hPa 0,0 l/m 8,9 km/h (2 Bft) N-NO 25 0 min 0 W/m 0,9 C 0,1 C 8,9 km/h (2 Bft)
21.01.2011 16:21 2,3 C 90 % 1030,5 hPa 0,0 l/m 8,2 km/h (2 Bft) N-NO 20 0 min 0 W/m 0,8 C 0,6 C 8,2 km/h (2 Bft)
21.01.2011 16:26 2,0 C 90 % 1031,5 hPa 0,0 l/m 8,5 km/h (2 Bft) N-NO 20 0 min 0 W/m 0,5 C 0,0 C 8,5 km/h (2 Bft)
21.01.2011 16:31 1,7 C 90 % 1031,5 hPa 0,0 l/m 8,7 km/h (2 Bft) N-NO 20 0 min 0 W/m 0,2 C -0,5 C 8,7 km/h (2 Bft)
21.01.2011 16:36 1,6 C 91 % 1031,5 hPa 0,0 l/m 9,3 km/h (2 Bft) N-NO 25 0 min 0 W/m 0,3 C -1,1 C 9,3 km/h (2 Bft)
21.01.2011 16:41 1,4 C 91 % 1031,5 hPa 0,0 l/m 10,6 km/h (2 Bft) NO 35 0 min 0 W/m 0,1 C -2,4 C 10,6 km/h (2 Bft)
21.01.2011 16:46 1,2 C 91 % 1031,5 hPa 0,0 l/m 9,6 km/h (2 Bft) NO 45 0 min 0 W/m -0,1 C -1,8 C 9,6 km/h (2 Bft)
21.01.2011 16:51 1,2 C 91 % 1031,5 hPa 0,0 l/m 8,1 km/h (2 Bft) N-NO 25 0 min 0 W/m -0,1 C -0,5 C 8,1 km/h (2 Bft)
21.01.2011 16:56 1,1 C 91 % 1031,5 hPa 0,0 l/m 14,1 km/h (3 Bft) N-NO 25 0 min 0 W/m -0,2 C -5,1 C 14,1 km/h (3 Bft)
21.01.2011 17:02 1,1 C 92 % 1031,5 hPa 0,0 l/m 10,6 km/h (2 Bft) N-NO 20 0 min 0 W/m -0,1 C -2,7 C 10,6 km/h (2 Bft)
21.01.2011 17:06 1,0 C 92 % 1031,5 hPa 0,0 l/m 9,1 km/h (2 Bft) N-NO 25 0 min 0 W/m -0,2 C -1,6 C 9,1 km/h (2 Bft)
21.01.2011 17:11 1,1 C 92 % 1031,5 hPa 0,0 l/m 9,1 km/h (2 Bft) N-NO 25 0 min 0 W/m -0,1 C -1,5 C 9,1 km/h (2 Bft)
21.01.2011 17:16 1,0 C 92 % 1031,5 hPa 0,0 l/m 10,3 km/h (2 Bft) N-NO 25 0 min 0 W/m -0,2 C -2,6 C 10,3 km/h (2 Bft)
21.01.2011 17:21 1,0 C 92 % 1031,5 hPa 0,0 l/m 11,4 km/h (2 Bft) N-NO 30 0 min 0 W/m -0,2 C -3,4 C 11,4 km/h (2 Bft)
21.01.2011 17:26 1,0 C 92 % 1031,5 hPa 0,0 l/m 10,3 km/h (2 Bft) NO 35 0 min 0 W/m -0,2 C -2,6 C 10,3 km/h (2 Bft)
21.01.2011 17:31 0,9 C 92 % 1031,5 hPa 0,0 l/m 4,6 km/h (1 Bft) NO 40 0 min 0 W/m -0,2 C 0,9 C 4,6 km/h (1 Bft)
21.01.2011 17:36 0,9 C 92 % 1031,5 hPa 0,0 l/m 6,8 km/h (2 Bft) N-NO 30 0 min 0 W/m -0,2 C 0,5 C 6,8 km/h (2 Bft)
21.01.2011 17:41 1,0 C 92 % 1031,5 hPa 0,0 l/m 1,3 km/h (1 Bft) N-NO 25 0 min 0 W/m -0,2 C 1,0 C 1,3 km/h (1 Bft)
21.01.2011 17:46 1,0 C 92 % 1031,5 hPa 0,0 l/m 0,9 km/h (0 Bft) NO 35 0 min 0 W/m -0,2 C 1,0 C 0,9 km/h (0 Bft)
21.01.2011 17:51 1,1 C 92 % 1031,5 hPa 0,0 l/m 1,9 km/h (1 Bft) NO 40 0 min 0 W/m -0,1 C 1,1 C 1,9 km/h (1 Bft)
21.01.2011 17:57 1,1 C 92 % 1031,5 hPa 0,0 l/m 3,8 km/h (1 Bft) NO 40 0 min 0 W/m -0,1 C 1,1 C 3,8 km/h (1 Bft)
21.01.2011 18:01 1,1 C 92 % 1031,5 hPa 0,0 l/m 0,8 km/h (0 Bft) NO 40 0 min 0 W/m -0,1 C 1,1 C 0,8 km/h (0 Bft)
21.01.2011 18:06 1,1 C 92 % 1031,5 hPa 0,0 l/m 0,0 km/h (0 Bft) NO 40 0 min 0 W/m -0,1 C 1,1 C 0,0 km/h (0 Bft)
21.01.2011 18:11 1,1 C 92 % 1031,5 hPa 0,0 l/m 4,0 km/h (1 Bft) NO 40 0 min 0 W/m -0,1 C 1,1 C 4,0 km/h (1 Bft)
21.01.2011 18:16 1,1 C 92 % 1031,5 hPa 0,0 l/m 5,4 km/h (2 Bft) NO 40 0 min 0 W/m -0,1 C 1,1 C 5,4 km/h (2 Bft)
21.01.2011 18:21 1,2 C 92 % 1031,5 hPa 0,0 l/m 0,0 km/h (0 Bft) NO 40 0 min 0 W/m 0,0 C 1,2 C 0,0 km/h (0 Bft)
21.01.2011 18:26 1,2 C 92 % 1031,5 hPa 0,0 l/m 0,0 km/h (0 Bft) NO 35 0 min 0 W/m 0,0 C 1,2 C 0,0 km/h (0 Bft)
21.01.2011 18:31 1,2 C 92 % 1031,5 hPa 0,0 l/m 0,0 km/h (0 Bft) NO 35 0 min 0 W/m 0,0 C 1,2 C 0,0 km/h (0 Bft)
21.01.2011 18:36 1,2 C 92 % 1031,5 hPa 0,0 l/m 3,6 km/h (1 Bft) NO 40 0 min 0 W/m 0,0 C 1,2 C 3,6 km/h (1 Bft)
21.01.2011 18:41 1,2 C 92 % 1031,5 hPa 0,0 l/m 0,0 km/h (0 Bft) NO 40 0 min 0 W/m 0,0 C 1,2 C 0,0 km/h (0 Bft)
21.01.2011 18:46 1,2 C 92 % 1031,5 hPa 0,0 l/m 3,9 km/h (1 Bft) NO 40 0 min 0 W/m 0,0 C 1,2 C 3,9 km/h (1 Bft)
21.01.2011 18:51 1,2 C 92 % 1031,5 hPa 0,0 l/m 0,6 km/h (0 Bft) NO 40 0 min 0 W/m 0,0 C 1,2 C 0,6 km/h (0 Bft)
21.01.2011 18:56 1,2 C 92 % 1031,5 hPa 0,0 l/m 7,0 km/h (2 Bft) NO 40 0 min 0 W/m 0,0 C 0,6 C 7,0 km/h (2 Bft)
21.01.2011 19:01 1,2 C 92 % 1031,5 hPa 0,0 l/m 4,8 km/h (1 Bft) NO 35 0 min 0 W/m 0,0 C 1,2 C 4,8 km/h (1 Bft)
21.01.2011 19:06 1,4 C 93 % 1031,5 hPa 0,0 l/m 0,0 km/h (0 Bft) NO 35 0 min 0 W/m 0,4 C 1,4 C 0,0 km/h (0 Bft)
21.01.2011 19:12 1,5 C 93 % 1031,5 hPa 0,0 l/m 0,0 km/h (0 Bft) NO 35 0 min 0 W/m 0,5 C 1,5 C 0,0 km/h (0 Bft)
21.01.2011 19:16 1,4 C 93 % 1031,5 hPa 0,0 l/m 0,0 km/h (0 Bft) NO 35 0 min 0 W/m 0,4 C 1,4 C 0,0 km/h (0 Bft)
21.01.2011 19:21 1,4 C 92 % 1031,5 hPa 0,0 l/m 0,1 km/h (0 Bft) NO 35 0 min 0 W/m 0,2 C 1,4 C 0,1 km/h (0 Bft)
21.01.2011 19:26 1,2 C 92 % 1031,5 hPa 0,0 l/m 0,0 km/h (0 Bft) NO 35 0 min 0 W/m 0,0 C 1,2 C 0,0 km/h (0 Bft)
21.01.2011 19:31 1,2 C 92 % 1031,5 hPa 0,0 l/m 0,0 km/h (0 Bft) NO 35 0 min 0 W/m 0,0 C 1,2 C 0,0 km/h (0 Bft)
21.01.2011 19:36 1,2 C 92 % 1031,5 hPa 0,0 l/m 3,6 km/h (1 Bft) N-NO 30 0 min 0 W/m 0,0 C 1,2 C 3,6 km/h (1 Bft)
21.01.2011 19:42 1,1 C 92 % 1031,5 hPa 0,0 l/m 7,4 km/h (2 Bft) N-NO 15 0 min 0 W/m -0,1 C 0,1 C 7,4 km/h (2 Bft)
21.01.2011 19:46 1,1 C 92 % 1031,5 hPa 0,0 l/m 6,1 km/h (2 Bft) N 5 0 min 0 W/m -0,1 C 1,1 C 6,1 km/h (2 Bft)
21.01.2011 19:51 0,9 C 92 % 1031,5 hPa 0,0 l/m 6,8 km/h (2 Bft) N-NW 345 0 min 0 W/m -0,2 C 0,5 C 6,8 km/h (2 Bft)
21.01.2011 19:56 0,9 C 92 % 1031,5 hPa 0,0 l/m 4,0 km/h (1 Bft) NW 305 0 min 0 W/m -0,2 C 0,9 C 4,0 km/h (1 Bft)
21.01.2011 20:01 0,8 C 92 % 1031,5 hPa 0,0 l/m 4,8 km/h (1 Bft) NW 305 0 min 0 W/m -0,3 C 0,8 C 4,8 km/h (1 Bft)
21.01.2011 20:07 0,8 C 92 % 1031,5 hPa 0,0 l/m 4,0 km/h (1 Bft) NW 305 0 min 0 W/m -0,3 C 0,8 C 4,0 km/h (1 Bft)
21.01.2011 20:11 0,8 C 92 % 1031,5 hPa 0,0 l/m 3,1 km/h (1 Bft) NW 305 0 min 0 W/m -0,3 C 0,8 C 3,1 km/h (1 Bft)
21.01.2011 20:16 0,8 C 92 % 1031,5 hPa 0,0 l/m 0,0 km/h (0 Bft) NW 305 0 min 0 W/m -0,3 C 0,8 C 0,0 km/h (0 Bft)
21.01.2011 20:21 0,9 C 92 % 1031,5 hPa 0,0 l/m 0,0 km/h (0 Bft) NW 305 0 min 0 W/m -0,2 C 0,9 C 0,0 km/h (0 Bft)
21.01.2011 20:26 0,9 C 92 % 1031,5 hPa 0,0 l/m 0,0 km/h (0 Bft) NW 305 0 min 0 W/m -0,2 C 0,9 C 0,0 km/h (0 Bft)
21.01.2011 20:31 1,0 C 92 % 1031,5 hPa 0,0 l/m 0,0 km/h (0 Bft) NW 305 0 min 0 W/m -0,2 C 1,0 C 0,0 km/h (0 Bft)
21.01.2011 20:37 1,0 C 92 % 1031,5 hPa 0,0 l/m 0,0 km/h (0 Bft) NW 305 0 min 0 W/m -0,2 C 1,0 C 0,0 km/h (0 Bft)
21.01.2011 20:41 1,0 C 92 % 1031,5 hPa 0,0 l/m 3,7 km/h (1 Bft) NW 305 0 min 0 W/m -0,2 C 1,0 C 3,7 km/h (1 Bft)
21.01.2011 20:46 1,0 C 92 % 1031,5 hPa 0,0 l/m 4,1 km/h (1 Bft) NW 305 0 min 0 W/m -0,2 C 1,0 C 4,1 km/h (1 Bft)
21.01.2011 20:51 1,0 C 92 % 1031,5 hPa 0,0 l/m 4,5 km/h (1 Bft) NW 305 0 min 0 W/m -0,2 C 1,0 C 4,5 km/h (1 Bft)
21.01.2011 20:56 1,0 C 92 % 1031,5 hPa 0,0 l/m 5,2 km/h (1 Bft) NW 305 0 min 0 W/m -0,2 C 1,0 C 5,2 km/h (1 Bft)
21.01.2011 21:01 1,1 C 92 % 1031,5 hPa 0,0 l/m 5,2 km/h (1 Bft) NW 305 0 min 0 W/m -0,1 C 1,1 C 5,2 km/h (1 Bft)
21.01.2011 21:06 1,1 C 92 % 1031,5 hPa 0,0 l/m 0,1 km/h (0 Bft) NW 305 0 min 0 W/m -0,1 C 1,1 C 0,1 km/h (0 Bft)
21.01.2011 21:11 1,1 C 92 % 1031,5 hPa 0,0 l/m 0,0 km/h (0 Bft) NW 305 0 min 0 W/m -0,1 C 1,1 C 0,0 km/h (0 Bft)
21.01.2011 21:16 1,1 C 92 % 1031,5 hPa 0,0 l/m 0,0 km/h (0 Bft) NW 305 0 min 0 W/m -0,1 C 1,1 C 0,0 km/h (0 Bft)
21.01.2011 21:21 1,1 C 92 % 1031,5 hPa 0,0 l/m 0,0 km/h (0 Bft) NW 305 0 min 0 W/m -0,1 C 1,1 C 0,0 km/h (0 Bft)
21.01.2011 21:27 1,1 C 92 % 1031,5 hPa 0,0 l/m 0,0 km/h (0 Bft) NW 305 0 min 0 W/m -0,1 C 1,1 C 0,0 km/h (0 Bft)
21.01.2011 21:31 1,1 C 92 % 1031,5 hPa 0,0 l/m 0,0 km/h (0 Bft) NW 305 0 min 0 W/m -0,1 C 1,1 C 0,0 km/h (0 Bft)
21.01.2011 21:36 1,1 C 92 % 1031,5 hPa 0,0 l/m 0,0 km/h (0 Bft) NW 305 0 min 0 W/m -0,1 C 1,1 C 0,0 km/h (0 Bft)
21.01.2011 21:41 1,1 C 92 % 1031,5 hPa 0,0 l/m 0,0 km/h (0 Bft) NW 305 0 min 0 W/m -0,1 C 1,1 C 0,0 km/h (0 Bft)
21.01.2011 21:46 1,1 C 92 % 1031,5 hPa 0,0 l/m 0,0 km/h (0 Bft) NW 305 0 min 0 W/m -0,1 C 1,1 C 0,0 km/h (0 Bft)
21.01.2011 21:51 1,1 C 92 % 1031,5 hPa 0,0 l/m 0,0 km/h (0 Bft) NW 305 0 min 0 W/m -0,1 C 1,1 C 0,0 km/h (0 Bft)
21.01.2011 21:56 1,2 C 92 % 1031,5 hPa 0,0 l/m 0,0 km/h (0 Bft) NW 305 0 min 0 W/m 0,0 C 1,2 C 0,0 km/h (0 Bft)
21.01.2011 22:01 1,2 C 92 % 1031,5 hPa 0,0 l/m 0,0 km/h (0 Bft) NW 305 0 min 0 W/m 0,0 C 1,2 C 0,0 km/h (0 Bft)
21.01.2011 22:06 1,2 C 92 % 1031,5 hPa 0,0 l/m 0,0 km/h (0 Bft) NW 305 0 min 0 W/m 0,0 C 1,2 C 0,0 km/h (0 Bft)
21.01.2011 22:11 1,2 C 92 % 1031,5 hPa 0,0 l/m 0,0 km/h (0 Bft) NW 305 0 min 0 W/m 0,0 C 1,2 C 0,0 km/h (0 Bft)
21.01.2011 22:16 1,2 C 92 % 1031,5 hPa 0,3 l/m 0,0 km/h (0 Bft) NW 305 0 min 0 W/m 0,0 C 1,2 C 0,0 km/h (0 Bft)
21.01.2011 22:22 1,2 C 92 % 1031,5 hPa 0,0 l/m 0,0 km/h (0 Bft) NW 305 0 min 0 W/m 0,0 C 1,2 C 0,0 km/h (0 Bft)
21.01.2011 22:26 1,2 C 92 % 1031,5 hPa 0,0 l/m 0,0 km/h (0 Bft) NW 305 0 min 0 W/m 0,0 C 1,2 C 0,0 km/h (0 Bft)
21.01.2011 22:31 1,2 C 92 % 1031,5 hPa 0,0 l/m 0,0 km/h (0 Bft) NW 305 0 min 0 W/m 0,0 C 1,2 C 0,0 km/h (0 Bft)
21.01.2011 22:36 1,2 C 92 % 1030,5 hPa 0,0 l/m 0,0 km/h (0 Bft) NW 305 0 min 0 W/m 0,0 C 1,2 C 0,0 km/h (0 Bft)
21.01.2011 22:41 1,2 C 92 % 1030,5 hPa 0,0 l/m 0,0 km/h (0 Bft) NW 305 0 min 0 W/m 0,0 C 1,2 C 0,0 km/h (0 Bft)
21.01.2011 22:46 1,2 C 92 % 1030,5 hPa 0,0 l/m 0,0 km/h (0 Bft) NW 305 0 min 0 W/m 0,0 C 1,2 C 0,0 km/h (0 Bft)
21.01.2011 22:52 1,2 C 92 % 1030,5 hPa 0,0 l/m 0,0 km/h (0 Bft) NW 305 0 min 0 W/m 0,0 C 1,2 C 0,0 km/h (0 Bft)
21.01.2011 22:56 1,2 C 92 % 1030,5 hPa 0,0 l/m 0,0 km/h (0 Bft) NW 305 0 min 0 W/m 0,0 C 1,2 C 0,0 km/h (0 Bft)
21.01.2011 23:01 1,3 C 93 % 1030,5 hPa 0,0 l/m 0,0 km/h (0 Bft) NW 305 0 min 0 W/m 0,3 C 1,3 C 0,0 km/h (0 Bft)
21.01.2011 23:06 1,3 C 93 % 1030,5 hPa 0,0 l/m 0,0 km/h (0 Bft) NW 305 0 min 0 W/m 0,3 C 1,3 C 0,0 km/h (0 Bft)
21.01.2011 23:11 1,3 C 93 % 1030,5 hPa 0,0 l/m 0,0 km/h (0 Bft) NW 305 0 min 0 W/m 0,3 C 1,3 C 0,0 km/h (0 Bft)
21.01.2011 23:16 1,4 C 93 % 1030,5 hPa 0,0 l/m 0,0 km/h (0 Bft) NW 305 0 min 0 W/m 0,4 C 1,4 C 0,0 km/h (0 Bft)
21.01.2011 23:21 1,4 C 93 % 1030,5 hPa 0,0 l/m 0,0 km/h (0 Bft) NW 305 0 min 0 W/m 0,4 C 1,4 C 0,0 km/h (0 Bft)
21.01.2011 23:26 1,4 C 93 % 1030,5 hPa 0,0 l/m 0,0 km/h (0 Bft) W-SW 240 0 min 0 W/m 0,4 C 1,4 C 0,0 km/h (0 Bft)
21.01.2011 23:31 1,5 C 93 % 1030,5 hPa 0,0 l/m 0,0 km/h (0 Bft) W-SW 245 0 min 0 W/m 0,5 C 1,5 C 0,0 km/h (0 Bft)
21.01.2011 23:36 1,5 C 93 % 1030,5 hPa 0,3 l/m 0,0 km/h (0 Bft) W-SW 245 0 min 0 W/m 0,5 C 1,5 C 0,0 km/h (0 Bft)
21.01.2011 23:41 1,5 C 93 % 1030,5 hPa 0,0 l/m 0,0 km/h (0 Bft) W-SW 255 0 min 0 W/m 0,5 C 1,5 C 0,0 km/h (0 Bft)
21.01.2011 23:46 1,5 C 93 % 1030,5 hPa 0,0 l/m 0,0 km/h (0 Bft) W-SW 250 0 min 0 W/m 0,5 C 1,5 C 0,0 km/h (0 Bft)
21.01.2011 23:51 1,5 C 93 % 1030,5 hPa 0,0 l/m 0,0 km/h (0 Bft) W-SW 250 0 min 0 W/m 0,5 C 1,5 C 0,0 km/h (0 Bft)
21.01.2011 23:56 1,6 C 93 % 1030,5 hPa 0,0 l/m 1,5 km/h (1 Bft) W-SW 245 0 min 0 W/m 0,6 C 1,6 C 1,5 km/h (1 Bft)
_ Min-Zeit 00:01 00:01 13:46 - 18:06 - - - - 00:01 02:56 18:06
Minimum _ -0,2 C 90 % 1030,5 hPa - 0,0 km/h (0 Bft) - - - - -1,6 C -5,7 C 0,0 km/h (0 Bft)
_ Max-Zeit 14:36 11:11 00:01 10:31 15:46 - - 00:01 00:01 11:16 14:01 15:46
Maximum _ 4,0 C 96 % 1032,5 hPa 0,3 l/m 18,0 km/h
N-NO (3 Bft)
- - 0 min 0 W/m 3,3 C 3,7 C 18,0 km/h
N-NO (3 Bft)
Durchschnitt _ 1,6 C 93 % 1031,5 hPa #1,2 l/m 7,0 km/h (2 Bft) N - #0 min. 0 W/m 0,5 C -0,3 C 7,0 km/h (2 Bft)
copyright by Holger Just